sensor_id;sensor_type;location;lat;lon;timestamp;P1;durP1;ratioP1;P2;durP2;ratioP2
49582;SDS011;36329;48.816;44.624;2023-04-15T00:02:17;1.3;;;1.1;;
49582;SDS011;36329;48.816;44.624;2023-04-15T00:05:19;1.3;;;1.1;;
49582;SDS011;36329;48.816;44.624;2023-04-15T00:08:22;1.7;;;1.1;;
49582;SDS011;36329;48.816;44.624;2023-04-15T00:11:24;1.7;;;1.2;;
49582;SDS011;36329;48.816;44.624;2023-04-15T00:14:26;1.5;;;1.1;;
49582;SDS011;36329;48.816;44.624;2023-04-15T00:17:28;1.7;;;1.1;;
49582;SDS011;36329;48.816;44.624;2023-04-15T00:20:29;1.7;;;1.2;;
49582;SDS011;36329;48.816;44.624;2023-04-15T00:23:32;1.7;;;1.2;;
49582;SDS011;36329;48.816;44.624;2023-04-15T00:26:34;1.3;;;1.2;;
49582;SDS011;36329;48.816;44.624;2023-04-15T00:29:36;1.7;;;1.3;;
49582;SDS011;36329;48.816;44.624;2023-04-15T00:32:37;2.1;;;1.4;;
49582;SDS011;36329;48.816;44.624;2023-04-15T00:35:39;2;;;1.5;;
49582;SDS011;36329;48.816;44.624;2023-04-15T00:38:41;1.9;;;1.3;;
49582;SDS011;36329;48.816;44.624;2023-04-15T00:41:44;1.9;;;1.1;;
49582;SDS011;36329;48.816;44.624;2023-04-15T00:44:47;1.4;;;1.3;;
49582;SDS011;36329;48.816;44.624;2023-04-15T00:47:49;1.8;;;1.4;;
49582;SDS011;36329;48.816;44.624;2023-04-15T00:50:51;1.5;;;1.4;;
49582;SDS011;36329;48.816;44.624;2023-04-15T00:53:53;2.1;;;1.4;;
49582;SDS011;36329;48.816;44.624;2023-04-15T00:56:55;4.4;;;1.4;;
49582;SDS011;36329;48.816;44.624;2023-04-15T00:59:57;1.6;;;1.5;;
49582;SDS011;36329;48.816;44.624;2023-04-15T01:02:59;2.9;;;1.5;;
49582;SDS011;36329;48.816;44.624;2023-04-15T01:06:01;1.7;;;1.4;;
49582;SDS011;36329;48.816;44.624;2023-04-15T01:09:03;2;;;1.4;;
49582;SDS011;36329;48.816;44.624;2023-04-15T01:12:06;1.4;;;1.3;;
49582;SDS011;36329;48.816;44.624;2023-04-15T01:15:09;2.4;;;1.6;;
49582;SDS011;36329;48.816;44.624;2023-04-15T01:18:11;1.9;;;1.4;;
49582;SDS011;36329;48.816;44.624;2023-04-15T01:21:13;2.6;;;1.2;;
49582;SDS011;36329;48.816;44.624;2023-04-15T01:24:16;2.6;;;1.4;;
49582;SDS011;36329;48.816;44.624;2023-04-15T01:27:19;1.6;;;1.4;;
49582;SDS011;36329;48.816;44.624;2023-04-15T01:30:22;1.6;;;1.3;;
49582;SDS011;36329;48.816;44.624;2023-04-15T01:33:24;2.4;;;1.6;;
49582;SDS011;36329;48.816;44.624;2023-04-15T01:36:26;2.6;;;1.4;;
49582;SDS011;36329;48.816;44.624;2023-04-15T01:39:28;1.7;;;1.4;;
49582;SDS011;36329;48.816;44.624;2023-04-15T01:42:30;1.8;;;1.5;;
49582;SDS011;36329;48.816;44.624;2023-04-15T01:45:33;2.1;;;1.6;;
49582;SDS011;36329;48.816;44.624;2023-04-15T01:48:34;2.3;;;1.6;;
49582;SDS011;36329;48.816;44.624;2023-04-15T01:51:36;1.9;;;1.5;;
49582;SDS011;36329;48.816;44.624;2023-04-15T01:54:38;2.1;;;1.5;;
49582;SDS011;36329;48.816;44.624;2023-04-15T01:57:40;1.9;;;1.7;;
49582;SDS011;36329;48.816;44.624;2023-04-15T02:00:42;2.2;;;1.9;;
49582;SDS011;36329;48.816;44.624;2023-04-15T02:03:44;2.4;;;1.6;;
49582;SDS011;36329;48.816;44.624;2023-04-15T02:06:46;2.4;;;1.5;;
49582;SDS011;36329;48.816;44.624;2023-04-15T02:09:48;1.7;;;1.4;;
49582;SDS011;36329;48.816;44.624;2023-04-15T02:12:50;1.8;;;1.6;;
49582;SDS011;36329;48.816;44.624;2023-04-15T02:15:53;3.7;;;1.8;;
49582;SDS011;36329;48.816;44.624;2023-04-15T02:18:55;2.5;;;1.6;;
49582;SDS011;36329;48.816;44.624;2023-04-15T02:21:57;2.5;;;1.6;;
49582;SDS011;36329;48.816;44.624;2023-04-15T02:24:59;1.9;;;1.7;;
49582;SDS011;36329;48.816;44.624;2023-04-15T02:28:01;2.5;;;1.8;;
49582;SDS011;36329;48.816;44.624;2023-04-15T02:31:04;3.8;;;1.5;;
49582;SDS011;36329;48.816;44.624;2023-04-15T02:34:06;2;;;1.5;;
49582;SDS011;36329;48.816;44.624;2023-04-15T02:37:08;1.5;;;1.2;;
49582;SDS011;36329;48.816;44.624;2023-04-15T02:40:12;3.5;;;1.6;;
49582;SDS011;36329;48.816;44.624;2023-04-15T02:43:14;2.9;;;1.5;;
49582;SDS011;36329;48.816;44.624;2023-04-15T02:46:16;2.8;;;1.5;;
49582;SDS011;36329;48.816;44.624;2023-04-15T02:49:17;3.1;;;1.7;;
49582;SDS011;36329;48.816;44.624;2023-04-15T02:52:19;2.6;;;1.4;;
49582;SDS011;36329;48.816;44.624;2023-04-15T02:55:21;1.9;;;1.5;;
49582;SDS011;36329;48.816;44.624;2023-04-15T02:58:24;1.7;;;1.3;;
49582;SDS011;36329;48.816;44.624;2023-04-15T03:01:26;2.1;;;1.6;;
49582;SDS011;36329;48.816;44.624;2023-04-15T03:04:28;4.4;;;1.8;;
49582;SDS011;36329;48.816;44.624;2023-04-15T03:07:30;2.2;;;1.5;;
49582;SDS011;36329;48.816;44.624;2023-04-15T03:10:32;2.7;;;1.8;;
49582;SDS011;36329;48.816;44.624;2023-04-15T03:13:34;2.7;;;1.7;;
49582;SDS011;36329;48.816;44.624;2023-04-15T03:16:36;2.7;;;1.7;;
49582;SDS011;36329;48.816;44.624;2023-04-15T03:19:38;4.2;;;1.8;;
49582;SDS011;36329;48.816;44.624;2023-04-15T03:22:40;2.9;;;1.9;;
49582;SDS011;36329;48.816;44.624;2023-04-15T03:25:43;2.6;;;1.9;;
49582;SDS011;36329;48.816;44.624;2023-04-15T03:28:45;5.2;;;1.9;;
49582;SDS011;36329;48.816;44.624;2023-04-15T03:31:47;3.5;;;1.6;;
49582;SDS011;36329;48.816;44.624;2023-04-15T03:34:49;5.3;;;2.2;;
49582;SDS011;36329;48.816;44.624;2023-04-15T03:37:51;4.4;;;1.9;;
49582;SDS011;36329;48.816;44.624;2023-04-15T03:40:53;4;;;2;;
49582;SDS011;36329;48.816;44.624;2023-04-15T03:43:55;4;;;2.1;;
49582;SDS011;36329;48.816;44.624;2023-04-15T03:46:57;4.3;;;1.9;;
49582;SDS011;36329;48.816;44.624;2023-04-15T03:49:59;3.2;;;2;;
49582;SDS011;36329;48.816;44.624;2023-04-15T03:53:01;5.2;;;2.7;;
49582;SDS011;36329;48.816;44.624;2023-04-15T03:56:03;8.7;;;2.1;;
49582;SDS011;36329;48.816;44.624;2023-04-15T03:59:05;3.1;;;1.8;;
49582;SDS011;36329;48.816;44.624;2023-04-15T04:02:07;3.2;;;1.8;;
49582;SDS011;36329;48.816;44.624;2023-04-15T04:05:09;4.6;;;1.6;;
49582;SDS011;36329;48.816;44.624;2023-04-15T04:08:10;7.5;;;2.4;;
49582;SDS011;36329;48.816;44.624;2023-04-15T04:11:12;5;;;2.1;;
49582;SDS011;36329;48.816;44.624;2023-04-15T04:14:14;5.2;;;1.5;;
49582;SDS011;36329;48.816;44.624;2023-04-15T04:17:16;5.5;;;1.7;;
49582;SDS011;36329;48.816;44.624;2023-04-15T04:20:18;8.8;;;1.6;;
49582;SDS011;36329;48.816;44.624;2023-04-15T04:23:20;5.9;;;1.7;;
49582;SDS011;36329;48.816;44.624;2023-04-15T04:26:22;3.6;;;1.7;;
49582;SDS011;36329;48.816;44.624;2023-04-15T04:29:24;6.1;;;1.8;;
49582;SDS011;36329;48.816;44.624;2023-04-15T04:32:27;9.1;;;2;;
49582;SDS011;36329;48.816;44.624;2023-04-15T04:35:28;4.6;;;1.8;;
49582;SDS011;36329;48.816;44.624;2023-04-15T04:38:30;7.2;;;2.4;;
49582;SDS011;36329;48.816;44.624;2023-04-15T04:41:32;4.1;;;1.6;;
49582;SDS011;36329;48.816;44.624;2023-04-15T04:44:34;4.4;;;1.6;;
49582;SDS011;36329;48.816;44.624;2023-04-15T04:47:36;4;;;1.9;;
49582;SDS011;36329;48.816;44.624;2023-04-15T04:50:38;5.3;;;1.8;;
49582;SDS011;36329;48.816;44.624;2023-04-15T04:53:40;6.6;;;2;;
49582;SDS011;36329;48.816;44.624;2023-04-15T04:56:42;3.8;;;1.9;;
49582;SDS011;36329;48.816;44.624;2023-04-15T04:59:44;5.9;;;1.8;;
49582;SDS011;36329;48.816;44.624;2023-04-15T05:02:46;4.7;;;2.2;;
49582;SDS011;36329;48.816;44.624;2023-04-15T05:05:48;4.3;;;2.2;;
49582;SDS011;36329;48.816;44.624;2023-04-15T05:08:50;5.6;;;1.9;;
49582;SDS011;36329;48.816;44.624;2023-04-15T05:11:52;5.2;;;2.1;;
49582;SDS011;36329;48.816;44.624;2023-04-15T05:14:54;5.8;;;2.1;;
49582;SDS011;36329;48.816;44.624;2023-04-15T05:17:56;4.3;;;1.9;;
49582;SDS011;36329;48.816;44.624;2023-04-15T05:20:58;3.9;;;2;;
49582;SDS011;36329;48.816;44.624;2023-04-15T05:24:00;3.4;;;1.7;;
49582;SDS011;36329;48.816;44.624;2023-04-15T05:27:02;8.8;;;2;;
49582;SDS011;36329;48.816;44.624;2023-04-15T05:30:04;5.6;;;2;;
49582;SDS011;36329;48.816;44.624;2023-04-15T05:33:07;6.1;;;2;;
49582;SDS011;36329;48.816;44.624;2023-04-15T05:36:09;3.4;;;2;;
49582;SDS011;36329;48.816;44.624;2023-04-15T05:39:11;4.2;;;2.2;;
49582;SDS011;36329;48.816;44.624;2023-04-15T05:42:13;6.7;;;2.2;;
49582;SDS011;36329;48.816;44.624;2023-04-15T05:45:15;4.1;;;1.9;;
49582;SDS011;36329;48.816;44.624;2023-04-15T05:48:17;6.3;;;2.2;;
49582;SDS011;36329;48.816;44.624;2023-04-15T05:51:18;6.5;;;2.1;;
49582;SDS011;36329;48.816;44.624;2023-04-15T05:54:20;4.5;;;1.9;;
49582;SDS011;36329;48.816;44.624;2023-04-15T05:57:22;5.6;;;1.8;;
49582;SDS011;36329;48.816;44.624;2023-04-15T06:00:24;3.8;;;1.9;;
49582;SDS011;36329;48.816;44.624;2023-04-15T06:03:26;5.3;;;2;;
49582;SDS011;36329;48.816;44.624;2023-04-15T06:06:28;6.9;;;2.4;;
49582;SDS011;36329;48.816;44.624;2023-04-15T06:09:30;6.5;;;1.9;;
49582;SDS011;36329;48.816;44.624;2023-04-15T06:12:32;7.8;;;1.8;;
49582;SDS011;36329;48.816;44.624;2023-04-15T06:15:34;4;;;2.1;;
49582;SDS011;36329;48.816;44.624;2023-04-15T06:18:36;2.3;;;1.9;;
49582;SDS011;36329;48.816;44.624;2023-04-15T06:21:38;5.5;;;2;;
49582;SDS011;36329;48.816;44.624;2023-04-15T06:24:40;4.7;;;2.2;;
49582;SDS011;36329;48.816;44.624;2023-04-15T06:27:42;4.7;;;2;;
49582;SDS011;36329;48.816;44.624;2023-04-15T06:30:44;5.6;;;2.2;;
49582;SDS011;36329;48.816;44.624;2023-04-15T06:33:47;6.2;;;2.1;;
49582;SDS011;36329;48.816;44.624;2023-04-15T06:36:49;5.4;;;2.1;;
49582;SDS011;36329;48.816;44.624;2023-04-15T06:39:50;3.5;;;2.2;;
49582;SDS011;36329;48.816;44.624;2023-04-15T06:42:52;6.2;;;2.2;;
49582;SDS011;36329;48.816;44.624;2023-04-15T06:45:54;3.8;;;2.1;;
49582;SDS011;36329;48.816;44.624;2023-04-15T06:48:56;3.8;;;2.2;;
49582;SDS011;36329;48.816;44.624;2023-04-15T06:51:58;3.3;;;2.2;;
49582;SDS011;36329;48.816;44.624;2023-04-15T06:55:00;7.1;;;2.5;;
49582;SDS011;36329;48.816;44.624;2023-04-15T06:58:02;4.7;;;2;;
49582;SDS011;36329;48.816;44.624;2023-04-15T07:01:04;6.7;;;2.2;;
49582;SDS011;36329;48.816;44.624;2023-04-15T07:04:06;3.9;;;2;;
49582;SDS011;36329;48.816;44.624;2023-04-15T07:07:08;4.9;;;2.3;;
49582;SDS011;36329;48.816;44.624;2023-04-15T07:10:10;6.2;;;2.1;;
49582;SDS011;36329;48.816;44.624;2023-04-15T07:13:12;4.3;;;2;;
49582;SDS011;36329;48.816;44.624;2023-04-15T07:16:14;5.1;;;2.2;;
49582;SDS011;36329;48.816;44.624;2023-04-15T07:19:16;8.7;;;2.2;;
49582;SDS011;36329;48.816;44.624;2023-04-15T07:22:18;5.8;;;2.3;;
49582;SDS011;36329;48.816;44.624;2023-04-15T07:25:20;7;;;2.5;;
49582;SDS011;36329;48.816;44.624;2023-04-15T07:28:22;6.4;;;2.4;;
49582;SDS011;36329;48.816;44.624;2023-04-15T07:31:24;8.1;;;2.4;;
49582;SDS011;36329;48.816;44.624;2023-04-15T07:34:26;5.6;;;2.4;;
49582;SDS011;36329;48.816;44.624;2023-04-15T07:37:28;9.5;;;2.4;;
49582;SDS011;36329;48.816;44.624;2023-04-15T07:40:30;7.6;;;2.5;;
49582;SDS011;36329;48.816;44.624;2023-04-15T07:43:32;5.2;;;2.4;;
49582;SDS011;36329;48.816;44.624;2023-04-15T07:46:34;8.3;;;2.8;;
49582;SDS011;36329;48.816;44.624;2023-04-15T07:49:37;8.3;;;2.7;;
49582;SDS011;36329;48.816;44.624;2023-04-15T07:52:39;6.1;;;2.6;;
49582;SDS011;36329;48.816;44.624;2023-04-15T07:55:41;7.9;;;2.7;;
49582;SDS011;36329;48.816;44.624;2023-04-15T07:58:43;4.9;;;2.5;;
49582;SDS011;36329;48.816;44.624;2023-04-15T08:01:45;4.6;;;2.6;;
49582;SDS011;36329;48.816;44.624;2023-04-15T08:04:47;3.6;;;2.5;;
49582;SDS011;36329;48.816;44.624;2023-04-15T08:07:49;5.1;;;2.7;;
49582;SDS011;36329;48.816;44.624;2023-04-15T08:10:51;8.4;;;2.5;;
49582;SDS011;36329;48.816;44.624;2023-04-15T08:13:53;7.4;;;2.9;;
49582;SDS011;36329;48.816;44.624;2023-04-15T08:17:00;9.5;;;2.9;;
49582;SDS011;36329;48.816;44.624;2023-04-15T08:20:03;4.8;;;2.4;;
49582;SDS011;36329;48.816;44.624;2023-04-15T08:23:05;5;;;2.4;;
49582;SDS011;36329;48.816;44.624;2023-04-15T08:26:07;4.6;;;2.4;;
49582;SDS011;36329;48.816;44.624;2023-04-15T08:29:09;5.9;;;2.5;;
49582;SDS011;36329;48.816;44.624;2023-04-15T08:32:11;5.8;;;2.6;;
49582;SDS011;36329;48.816;44.624;2023-04-15T08:35:13;6.8;;;3.1;;
49582;SDS011;36329;48.816;44.624;2023-04-15T08:38:21;6.2;;;2.6;;
49582;SDS011;36329;48.816;44.624;2023-04-15T08:41:24;6.9;;;2.6;;
49582;SDS011;36329;48.816;44.624;2023-04-15T08:44:27;5.6;;;2.5;;
49582;SDS011;36329;48.816;44.624;2023-04-15T08:47:30;7.3;;;2.7;;
49582;SDS011;36329;48.816;44.624;2023-04-15T08:50:33;8.3;;;2.8;;
49582;SDS011;36329;48.816;44.624;2023-04-15T08:53:36;8.6;;;2.6;;
49582;SDS011;36329;48.816;44.624;2023-04-15T08:56:38;7.3;;;2.9;;
49582;SDS011;36329;48.816;44.624;2023-04-15T08:59:40;7.2;;;2.5;;
49582;SDS011;36329;48.816;44.624;2023-04-15T09:02:43;7.1;;;2.7;;
49582;SDS011;36329;48.816;44.624;2023-04-15T09:05:45;7;;;3.2;;
49582;SDS011;36329;48.816;44.624;2023-04-15T09:08:48;6.1;;;2.7;;
49582;SDS011;36329;48.816;44.624;2023-04-15T09:11:50;6.6;;;2.5;;
49582;SDS011;36329;48.816;44.624;2023-04-15T09:14:52;6.1;;;2.6;;
49582;SDS011;36329;48.816;44.624;2023-04-15T09:17:54;5.6;;;2.4;;
49582;SDS011;36329;48.816;44.624;2023-04-15T09:21:03;5.5;;;2.2;;
49582;SDS011;36329;48.816;44.624;2023-04-15T09:24:06;4.7;;;2.4;;
49582;SDS011;36329;48.816;44.624;2023-04-15T09:27:08;4.2;;;2.4;;
49582;SDS011;36329;48.816;44.624;2023-04-15T09:30:10;6.5;;;2.4;;
49582;SDS011;36329;48.816;44.624;2023-04-15T09:33:13;3.9;;;2.3;;
49582;SDS011;36329;48.816;44.624;2023-04-15T09:36:15;4;;;2.2;;
49582;SDS011;36329;48.816;44.624;2023-04-15T09:39:17;4.3;;;2.2;;
49582;SDS011;36329;48.816;44.624;2023-04-15T09:42:19;5.5;;;2.5;;
49582;SDS011;36329;48.816;44.624;2023-04-15T09:45:22;6.2;;;2.4;;
49582;SDS011;36329;48.816;44.624;2023-04-15T09:48:24;7.2;;;2.5;;
49582;SDS011;36329;48.816;44.624;2023-04-15T09:51:33;11.3;;;2.6;;
49582;SDS011;36329;48.816;44.624;2023-04-15T09:54:36;6.9;;;2.5;;
49582;SDS011;36329;48.816;44.624;2023-04-15T09:57:39;7.7;;;2.6;;
49582;SDS011;36329;48.816;44.624;2023-04-15T10:00:41;6.7;;;2.5;;
49582;SDS011;36329;48.816;44.624;2023-04-15T10:03:44;7.6;;;2.5;;
49582;SDS011;36329;48.816;44.624;2023-04-15T10:06:47;4.9;;;2.3;;
49582;SDS011;36329;48.816;44.624;2023-04-15T10:09:49;4.7;;;2.3;;
49582;SDS011;36329;48.816;44.624;2023-04-15T10:12:51;8.6;;;2.6;;
49582;SDS011;36329;48.816;44.624;2023-04-15T10:15:56;7;;;2.2;;
49582;SDS011;36329;48.816;44.624;2023-04-15T10:19:00;9.3;;;2.3;;
49582;SDS011;36329;48.816;44.624;2023-04-15T10:22:03;5.9;;;2.5;;
49582;SDS011;36329;48.816;44.624;2023-04-15T10:25:05;6.6;;;2.4;;
49582;SDS011;36329;48.816;44.624;2023-04-15T10:28:08;6.7;;;2.4;;
49582;SDS011;36329;48.816;44.624;2023-04-15T10:31:11;6.2;;;2.4;;
49582;SDS011;36329;48.816;44.624;2023-04-15T10:34:13;6.5;;;2.3;;
49582;SDS011;36329;48.816;44.624;2023-04-15T10:37:19;5.3;;;2.6;;
49582;SDS011;36329;48.816;44.624;2023-04-15T10:40:23;4;;;2.4;;
49582;SDS011;36329;48.816;44.624;2023-04-15T10:43:26;5.2;;;2.4;;
49582;SDS011;36329;48.816;44.624;2023-04-15T10:46:34;5.8;;;3;;
49582;SDS011;36329;48.816;44.624;2023-04-15T10:49:45;5;;;2.4;;
49582;SDS011;36329;48.816;44.624;2023-04-15T10:52:50;5.3;;;2.6;;
49582;SDS011;36329;48.816;44.624;2023-04-15T10:55:52;5;;;2.3;;
49582;SDS011;36329;48.816;44.624;2023-04-15T10:58:54;6;;;2.9;;
49582;SDS011;36329;48.816;44.624;2023-04-15T11:01:59;8.5;;;2.4;;
49582;SDS011;36329;48.816;44.624;2023-04-15T11:05:03;5;;;2.6;;
49582;SDS011;36329;48.816;44.624;2023-04-15T11:08:05;5.3;;;2.4;;
49582;SDS011;36329;48.816;44.624;2023-04-15T11:11:07;5.4;;;2.4;;
49582;SDS011;36329;48.816;44.624;2023-04-15T11:14:13;5.2;;;2.2;;
49582;SDS011;36329;48.816;44.624;2023-04-15T11:17:25;4.5;;;2.2;;
49582;SDS011;36329;48.816;44.624;2023-04-15T11:20:28;4.5;;;2.3;;
49582;SDS011;36329;48.816;44.624;2023-04-15T11:23:31;6.6;;;2.7;;
49582;SDS011;36329;48.816;44.624;2023-04-15T11:26:34;8.4;;;2.3;;
49582;SDS011;36329;48.816;44.624;2023-04-15T11:29:36;5.7;;;2.6;;
49582;SDS011;36329;48.816;44.624;2023-04-15T11:32:40;11.7;;;2.7;;
49582;SDS011;36329;48.816;44.624;2023-04-15T11:35:42;5.4;;;2.4;;
49582;SDS011;36329;48.816;44.624;2023-04-15T11:38:46;4.7;;;2.3;;
49582;SDS011;36329;48.816;44.624;2023-04-15T11:41:48;6.3;;;2.8;;
49582;SDS011;36329;48.816;44.624;2023-04-15T11:44:50;8.2;;;2.7;;
49582;SDS011;36329;48.816;44.624;2023-04-15T11:48:09;4.9;;;2.4;;
49582;SDS011;36329;48.816;44.624;2023-04-15T11:51:13;8.1;;;2.6;;
49582;SDS011;36329;48.816;44.624;2023-04-15T11:54:17;7.3;;;2.6;;
49582;SDS011;36329;48.816;44.624;2023-04-15T11:57:19;8.4;;;2.5;;
49582;SDS011;36329;48.816;44.624;2023-04-15T12:00:22;6;;;2.1;;
49582;SDS011;36329;48.816;44.624;2023-04-15T12:03:25;5.7;;;2.5;;
49582;SDS011;36329;48.816;44.624;2023-04-15T12:06:31;4.4;;;2.5;;
49582;SDS011;36329;48.816;44.624;2023-04-15T12:09:36;4.8;;;2.4;;
49582;SDS011;36329;48.816;44.624;2023-04-15T12:12:39;7.5;;;2.7;;
49582;SDS011;36329;48.816;44.624;2023-04-15T12:15:42;6;;;2.3;;
49582;SDS011;36329;48.816;44.624;2023-04-15T12:18:44;12.2;;;2.6;;
49582;SDS011;36329;48.816;44.624;2023-04-15T12:21:47;5.7;;;2.4;;
49582;SDS011;36329;48.816;44.624;2023-04-15T12:24:53;5.9;;;2.2;;
49582;SDS011;36329;48.816;44.624;2023-04-15T12:27:56;4.9;;;2.5;;
49582;SDS011;36329;48.816;44.624;2023-04-15T12:30:58;5.7;;;2.6;;
49582;SDS011;36329;48.816;44.624;2023-04-15T12:34:02;4.9;;;2.7;;
49582;SDS011;36329;48.816;44.624;2023-04-15T12:37:09;4.7;;;2.2;;
49582;SDS011;36329;48.816;44.624;2023-04-15T12:40:13;5.6;;;2.6;;
49582;SDS011;36329;48.816;44.624;2023-04-15T12:43:15;4.8;;;2.3;;
49582;SDS011;36329;48.816;44.624;2023-04-15T12:46:17;3.1;;;2.2;;
49582;SDS011;36329;48.816;44.624;2023-04-15T12:49:19;13.9;;;2.8;;
49582;SDS011;36329;48.816;44.624;2023-04-15T12:52:21;6.8;;;2.5;;
49582;SDS011;36329;48.816;44.624;2023-04-15T12:55:23;8.5;;;2.5;;
49582;SDS011;36329;48.816;44.624;2023-04-15T12:58:26;3.8;;;2.2;;
49582;SDS011;36329;48.816;44.624;2023-04-15T13:01:29;6.5;;;2.4;;
49582;SDS011;36329;48.816;44.624;2023-04-15T13:04:31;8.6;;;2.6;;
49582;SDS011;36329;48.816;44.624;2023-04-15T13:07:33;4.6;;;2.4;;
49582;SDS011;36329;48.816;44.624;2023-04-15T13:10:35;8.3;;;2.4;;
49582;SDS011;36329;48.816;44.624;2023-04-15T13:13:37;7.1;;;2.6;;
49582;SDS011;36329;48.816;44.624;2023-04-15T13:16:39;6.4;;;2.6;;
49582;SDS011;36329;48.816;44.624;2023-04-15T13:19:41;5.5;;;2;;
49582;SDS011;36329;48.816;44.624;2023-04-15T13:22:43;5.8;;;2.5;;
49582;SDS011;36329;48.816;44.624;2023-04-15T13:25:45;6.9;;;2.5;;
49582;SDS011;36329;48.816;44.624;2023-04-15T13:28:47;3.5;;;2.4;;
49582;SDS011;36329;48.816;44.624;2023-04-15T13:31:49;7.6;;;2.5;;
49582;SDS011;36329;48.816;44.624;2023-04-15T13:34:51;5;;;2.4;;
49582;SDS011;36329;48.816;44.624;2023-04-15T13:37:53;5;;;2.5;;
49582;SDS011;36329;48.816;44.624;2023-04-15T13:40:55;5.9;;;2.3;;
49582;SDS011;36329;48.816;44.624;2023-04-15T13:43:57;6.2;;;2.4;;
49582;SDS011;36329;48.816;44.624;2023-04-15T13:46:59;5.5;;;2.5;;
49582;SDS011;36329;48.816;44.624;2023-04-15T13:50:01;5;;;2.5;;
49582;SDS011;36329;48.816;44.624;2023-04-15T13:53:05;6.7;;;2.4;;
49582;SDS011;36329;48.816;44.624;2023-04-15T13:56:07;7.6;;;2.5;;
49582;SDS011;36329;48.816;44.624;2023-04-15T13:59:10;8.1;;;3.5;;
49582;SDS011;36329;48.816;44.624;2023-04-15T14:02:12;7.4;;;2.5;;
49582;SDS011;36329;48.816;44.624;2023-04-15T14:05:14;6.8;;;2.6;;
49582;SDS011;36329;48.816;44.624;2023-04-15T14:08:16;6.3;;;2.5;;
49582;SDS011;36329;48.816;44.624;2023-04-15T14:11:18;5.9;;;2.4;;
49582;SDS011;36329;48.816;44.624;2023-04-15T14:14:20;8;;;2.6;;
49582;SDS011;36329;48.816;44.624;2023-04-15T14:17:22;7.5;;;2.4;;
49582;SDS011;36329;48.816;44.624;2023-04-15T14:20:24;4;;;2.1;;
49582;SDS011;36329;48.816;44.624;2023-04-15T14:23:26;5.4;;;2.6;;
49582;SDS011;36329;48.816;44.624;2023-04-15T14:26:28;6;;;2.5;;
49582;SDS011;36329;48.816;44.624;2023-04-15T14:29:30;5.5;;;2.6;;
49582;SDS011;36329;48.816;44.624;2023-04-15T14:32:32;5.2;;;2.5;;
49582;SDS011;36329;48.816;44.624;2023-04-15T14:35:45;5.9;;;2.5;;
49582;SDS011;36329;48.816;44.624;2023-04-15T14:38:52;6.9;;;2.8;;
49582;SDS011;36329;48.816;44.624;2023-04-15T14:41:54;8.5;;;3.1;;
49582;SDS011;36329;48.816;44.624;2023-04-15T14:44:56;6.8;;;2.7;;
49582;SDS011;36329;48.816;44.624;2023-04-15T14:47:58;6.2;;;2.6;;
49582;SDS011;36329;48.816;44.624;2023-04-15T14:51:00;5.8;;;2.5;;
49582;SDS011;36329;48.816;44.624;2023-04-15T14:54:02;5.5;;;2.4;;
49582;SDS011;36329;48.816;44.624;2023-04-15T14:57:05;4.6;;;2.6;;
49582;SDS011;36329;48.816;44.624;2023-04-15T15:00:08;7.3;;;2.8;;
49582;SDS011;36329;48.816;44.624;2023-04-15T15:03:11;8.7;;;3;;
49582;SDS011;36329;48.816;44.624;2023-04-15T15:06:13;4.6;;;2.5;;
49582;SDS011;36329;48.816;44.624;2023-04-15T15:09:15;5.9;;;2.5;;
49582;SDS011;36329;48.816;44.624;2023-04-15T15:12:17;4.6;;;2.5;;
49582;SDS011;36329;48.816;44.624;2023-04-15T15:15:19;5.8;;;2.5;;
49582;SDS011;36329;48.816;44.624;2023-04-15T15:18:21;7.9;;;2.7;;
49582;SDS011;36329;48.816;44.624;2023-04-15T15:21:23;6.1;;;2.7;;
49582;SDS011;36329;48.816;44.624;2023-04-15T15:24:26;9.2;;;2.4;;
49582;SDS011;36329;48.816;44.624;2023-04-15T15:27:28;7;;;2.4;;
49582;SDS011;36329;48.816;44.624;2023-04-15T15:30:30;7.1;;;2.4;;
49582;SDS011;36329;48.816;44.624;2023-04-15T15:33:33;5.8;;;2.3;;
49582;SDS011;36329;48.816;44.624;2023-04-15T15:36:35;4.8;;;2.6;;
49582;SDS011;36329;48.816;44.624;2023-04-15T15:39:37;5.6;;;2.4;;
49582;SDS011;36329;48.816;44.624;2023-04-15T15:42:40;5.4;;;2.5;;
49582;SDS011;36329;48.816;44.624;2023-04-15T15:45:42;10.1;;;2.3;;
49582;SDS011;36329;48.816;44.624;2023-04-15T15:48:44;5.4;;;2.7;;
49582;SDS011;36329;48.816;44.624;2023-04-15T15:51:46;5.8;;;2.8;;
49582;SDS011;36329;48.816;44.624;2023-04-15T15:54:48;7.4;;;2.6;;
49582;SDS011;36329;48.816;44.624;2023-04-15T15:57:50;7.1;;;2.5;;
49582;SDS011;36329;48.816;44.624;2023-04-15T16:00:52;7.6;;;2.7;;
49582;SDS011;36329;48.816;44.624;2023-04-15T16:03:54;6.7;;;2.6;;
49582;SDS011;36329;48.816;44.624;2023-04-15T16:06:56;7.5;;;2.6;;
49582;SDS011;36329;48.816;44.624;2023-04-15T16:09:58;6;;;2.7;;
49582;SDS011;36329;48.816;44.624;2023-04-15T16:13:00;5;;;2.7;;
49582;SDS011;36329;48.816;44.624;2023-04-15T16:16:03;7.3;;;3.4;;
49582;SDS011;36329;48.816;44.624;2023-04-15T16:19:05;8.1;;;3.3;;
49582;SDS011;36329;48.816;44.624;2023-04-15T16:22:07;6.7;;;3.8;;
49582;SDS011;36329;48.816;44.624;2023-04-15T16:25:09;5.5;;;2.7;;
49582;SDS011;36329;48.816;44.624;2023-04-15T16:28:11;5.5;;;2.8;;
49582;SDS011;36329;48.816;44.624;2023-04-15T16:31:14;7.6;;;2.8;;
49582;SDS011;36329;48.816;44.624;2023-04-15T16:34:16;10.1;;;2.6;;
49582;SDS011;36329;48.816;44.624;2023-04-15T16:37:18;5.4;;;2.5;;
49582;SDS011;36329;48.816;44.624;2023-04-15T16:40:21;3.7;;;2.4;;
49582;SDS011;36329;48.816;44.624;2023-04-15T16:43:23;7.7;;;2.6;;
49582;SDS011;36329;48.816;44.624;2023-04-15T16:46:25;6.4;;;2.6;;
49582;SDS011;36329;48.816;44.624;2023-04-15T16:49:28;6.9;;;2.5;;
49582;SDS011;36329;48.816;44.624;2023-04-15T16:52:30;7.6;;;2.6;;
49582;SDS011;36329;48.816;44.624;2023-04-15T16:55:32;7;;;3.1;;
49582;SDS011;36329;48.816;44.624;2023-04-15T16:58:34;7;;;2.9;;
49582;SDS011;36329;48.816;44.624;2023-04-15T17:01:36;4.5;;;2.7;;
49582;SDS011;36329;48.816;44.624;2023-04-15T17:04:38;4.5;;;2.7;;
49582;SDS011;36329;48.816;44.624;2023-04-15T17:07:40;9.5;;;2.5;;
49582;SDS011;36329;48.816;44.624;2023-04-15T17:10:42;7.3;;;2.6;;
49582;SDS011;36329;48.816;44.624;2023-04-15T17:13:45;6.5;;;2.8;;
49582;SDS011;36329;48.816;44.624;2023-04-15T17:16:47;7.6;;;2.8;;
49582;SDS011;36329;48.816;44.624;2023-04-15T17:19:50;8.1;;;3.6;;
49582;SDS011;36329;48.816;44.624;2023-04-15T17:22:54;6.4;;;3.2;;
49582;SDS011;36329;48.816;44.624;2023-04-15T17:26:03;7.3;;;3;;
49582;SDS011;36329;48.816;44.624;2023-04-15T17:29:07;5.9;;;2.5;;
49582;SDS011;36329;48.816;44.624;2023-04-15T17:32:16;8.2;;;2.6;;
49582;SDS011;36329;48.816;44.624;2023-04-15T17:35:33;9.2;;;2.5;;
49582;SDS011;36329;48.816;44.624;2023-04-15T17:38:50;5.5;;;2.6;;
49582;SDS011;36329;48.816;44.624;2023-04-15T17:42:08;6.5;;;2.4;;
49582;SDS011;36329;48.816;44.624;2023-04-15T17:45:26;4.9;;;2.4;;
49582;SDS011;36329;48.816;44.624;2023-04-15T17:48:43;6.1;;;2.3;;
49582;SDS011;36329;48.816;44.624;2023-04-15T17:52:00;5;;;2.1;;
49582;SDS011;36329;48.816;44.624;2023-04-15T17:55:17;5.3;;;2.1;;
49582;SDS011;36329;48.816;44.624;2023-04-15T17:58:34;5;;;2.2;;
49582;SDS011;36329;48.816;44.624;2023-04-15T18:01:51;5.4;;;2.1;;
49582;SDS011;36329;48.816;44.624;2023-04-15T18:05:08;7.5;;;2.2;;
49582;SDS011;36329;48.816;44.624;2023-04-15T18:08:25;4.4;;;2.2;;
49582;SDS011;36329;48.816;44.624;2023-04-15T18:11:42;5.5;;;2;;
49582;SDS011;36329;48.816;44.624;2023-04-15T18:14:59;2.7;;;1.9;;
49582;SDS011;36329;48.816;44.624;2023-04-15T18:18:17;6.9;;;2.3;;
49582;SDS011;36329;48.816;44.624;2023-04-15T18:21:20;5.3;;;2.1;;
49582;SDS011;36329;48.816;44.624;2023-04-15T18:24:22;4.8;;;2.2;;
49582;SDS011;36329;48.816;44.624;2023-04-15T18:27:24;6.6;;;2.6;;
49582;SDS011;36329;48.816;44.624;2023-04-15T18:30:26;5.9;;;2.2;;
49582;SDS011;36329;48.816;44.624;2023-04-15T18:33:28;4.3;;;2.1;;
49582;SDS011;36329;48.816;44.624;2023-04-15T18:36:30;6.2;;;2.5;;
49582;SDS011;36329;48.816;44.624;2023-04-15T18:39:32;7.9;;;1.9;;
49582;SDS011;36329;48.816;44.624;2023-04-15T18:42:34;5.3;;;1.9;;
49582;SDS011;36329;48.816;44.624;2023-04-15T18:45:36;6.8;;;2.3;;